BIENTÔT MET'MAP
version 2.0 !

Prévue avant fin octobre,
la nouvelle version sera
plus belle, plus complète
et hébergée sur un serveur
3 fois plus puissant...
et toujours gratuite !


Pas compatible ?
Essayez la version Mobile !

SE CONNECTER : | S'inscrire | Disclaimer | Découvrir Orbifly |
Code OACI :

TAF - EGPD Aberdeen / Dyce - 05 Apr 2020 12:49 UTC - Data Source NOAA   


- Altitude de l'aérodrome : 215 ft
- Code IATA : ABZ
- Pas de NOTAMs connus.


EGPD - Aberdeen / Dyce

Dernier METAR connu : 2015/08/11 07:50 EGPD 110750Z 25004KT 200V320 9999 BKN034 15/09 Q1015 NOSIG
TAF TAF EGPD
Valide du 05 à 06h jusqu'au 06 à 06h UTC


050454Z 0506/0606 16009KT 9999 SCT030
PROB30
TEMPO 0506/0509 17015G25KT
BECMG 0509/0512 16015G25KT
TEMPO 0512/0604 17022G35KT
PROB40
TEMPO 0518/0603 17032G45KT
PROB30
TEMPO 0600/0606 6000 RA BKN014
BECMG 0603/0606 20012KT

Source NOAA


MET'MAP, la Météo Aéronautique d'un coup d'oeil ! - Copyright ORBIFLY Décembre 2007

Développement & Programmation : Alexandra Zaïnal
Co-Développement : Marc-Olivier Méhu
Soutien technique & logistique : Manuel Goepfert
Conception & Financement : Baudouin d'Aumeries